Vermilion, Ohio
Current Conditions -  °F | °C
As of 2:53 AM on Saturday 01 Nov 2014 (Local Time) from KLPR Reporting Station
Moderate Rain Moderate Rain  
Wind Chill: 30°   Ceiling: 1200
Heat Index: 41°   Visibility: 4mi
Dew Point: 38°   Wind: 26mph
Humidity: 89%   Direction: 30°NNE
Pressure: 29.98"   Gusts: 33mph
Location:  41.42°N, 82.36°W
Report Text: KLPR 010653Z AUTO 03023G29KT 4SM RA BR BKN012 BKN017 OVC021 05/03 A2998 RMK AO2 PK WND 03033/0555 SLP156 P0012 T00500033 TSNO
Loading
Personal Weather Stations






























Interactive Weather Map
Tropical Storm Tracking
New forecast layout! Learn more

10-Day Weather Forecast

Advertisements
Track Severe Weather on mobile